Time;durP1;ratioP1;P1;durP2;ratioP2;P2;SDS_P1;SDS_P2;PMS_P1;PMS_P2;Temp;Humidity;BMP_temperature;BMP_pressure;BME280_temperature;BME280_humidity;BME280_pressure;Samples;Min_cycle;Max_cycle;Signal;HPM_P1;HPM_P2
2023/07/27 00:00:54;;;;;;;8.30;5.00;;;15.50;99.90;;;;;;5030462;28;20228;-76
2023/07/27 00:03:19;;;;;;;9.93;5.13;;;15.50;99.90;;;;;;5030453;28;20073;-76
2023/07/27 00:05:45;;;;;;;10.55;5.57;;;15.50;99.90;;;;;;5029481;28;20050;-77
2023/07/27 00:08:11;;;;;;;9.15;5.15;;;15.50;99.90;;;;;;5034109;28;20046;-77
2023/07/27 00:10:37;;;;;;;9.70;5.45;;;15.40;99.90;;;;;;5033262;28;20044;-77
2023/07/27 00:13:03;;;;;;;9.38;4.78;;;15.40;99.90;;;;;;5034870;28;20053;-77
2023/07/27 00:15:29;;;;;;;9.68;4.95;;;15.40;99.90;;;;;;5033112;28;20049;-76
2023/07/27 00:17:55;;;;;;;9.07;4.93;;;15.40;99.90;;;;;;5034765;28;20056;-78
2023/07/27 00:20:20;;;;;;;8.27;4.88;;;15.30;99.90;;;;;;5034995;28;20046;-78
2023/07/27 00:22:46;;;;;;;8.77;4.78;;;15.30;99.90;;;;;;5033149;28;20043;-77
2023/07/27 00:25:12;;;;;;;9.68;5.68;;;15.30;99.90;;;;;;5033627;28;20045;-78
2023/07/27 00:27:38;;;;;;;9.70;4.90;;;15.30;99.90;;;;;;5034049;28;20072;-78
2023/07/27 00:30:04;;;;;;;8.68;5.32;;;15.30;99.90;;;;;;5034497;28;20041;-77
2023/07/27 00:32:30;;;;;;;9.23;5.28;;;15.20;99.90;;;;;;5033416;28;20049;-77
2023/07/27 00:34:56;;;;;;;9.13;5.85;;;15.20;99.90;;;;;;5033714;28;20053;-77
2023/07/27 00:37:21;;;;;;;11.75;5.20;;;15.20;99.90;;;;;;5034678;28;20049;-77
2023/07/27 00:39:47;;;;;;;12.52;5.22;;;15.20;99.90;;;;;;5033161;28;20274;-76
2023/07/27 00:42:13;;;;;;;9.45;5.18;;;15.20;99.90;;;;;;5035296;28;20095;-78
2023/07/27 00:44:39;;;;;;;9.10;5.43;;;15.20;99.90;;;;;;5036235;28;20041;-79
2023/07/27 00:47:05;;;;;;;8.85;5.03;;;15.20;99.90;;;;;;5038609;28;20395;-77
2023/07/27 00:49:32;;;;;;;8.00;4.72;;;15.30;99.90;;;;;;5036514;28;20053;-76
2023/07/27 00:51:59;;;;;;;7.45;4.90;;;15.20;99.90;;;;;;5037588;28;20049;-78
2023/07/27 00:54:25;;;;;;;8.43;4.80;;;15.20;99.90;;;;;;5034219;28;20049;-78
2023/07/27 00:56:51;;;;;;;7.57;4.70;;;15.30;99.90;;;;;;5034653;28;20457;-78
2023/07/27 00:59:16;;;;;;;7.25;4.13;;;15.30;99.90;;;;;;5035445;28;20084;-78
2023/07/27 01:01:42;;;;;;;7.93;4.50;;;15.30;99.90;;;;;;5033769;28;20091;-78
2023/07/27 01:04:08;;;;;;;8.13;4.78;;;15.30;99.90;;;;;;5032974;28;20041;-78
2023/07/27 01:06:34;;;;;;;8.63;4.55;;;15.30;99.90;;;;;;5032730;28;20100;-77
2023/07/27 01:09:01;;;;;;;5.78;4.50;;;15.30;99.90;;;;;;5034109;28;20060;-78
2023/07/27 01:11:37;;;;;;;7.38;4.20;;;15.30;99.90;;;;;;5033944;28;20053;-78
2023/07/27 01:14:08;;;;;;;7.30;4.57;;;15.20;99.90;;;;;;5033821;28;20403;-77
2023/07/27 01:16:42;;;;;;;8.73;4.88;;;15.30;99.90;;;;;;5033673;28;20491;-76
2023/07/27 01:19:36;;;;;;;7.95;4.45;;;15.30;99.90;;;;;;5033900;28;20046;-78
2023/07/27 01:22:25;;;;;;;8.00;5.00;;;15.30;99.90;;;;;;5016416;28;20053;-76
2023/07/27 01:25:10;;;;;;;8.05;4.57;;;15.20;99.90;;;;;;5033515;28;20091;-77
2023/07/27 01:27:54;;;;;;;6.70;4.63;;;15.30;99.90;;;;;;5033034;28;20061;-76
2023/07/27 01:30:31;;;;;;;10.48;4.72;;;15.20;99.90;;;;;;5032527;28;20107;-77
2023/07/27 01:33:05;;;;;;;7.97;4.85;;;15.20;99.90;;;;;;5032789;28;20119;-77
2023/07/27 01:35:47;;;;;;;6.68;5.10;;;15.20;99.90;;;;;;5037088;28;20095;-78
2023/07/27 01:38:13;;;;;;;8.35;4.68;;;15.20;99.90;;;;;;5037728;28;20072;-78
2023/07/27 01:40:41;;;;;;;8.07;4.90;;;15.20;99.90;;;;;;5033172;28;20060;-77
2023/07/27 01:43:09;;;;;;;6.57;4.22;;;15.20;99.90;;;;;;5033483;28;20126;-77
2023/07/27 01:45:36;;;;;;;6.70;4.20;;;15.20;99.90;;;;;;5033421;28;20077;-78
2023/07/27 01:48:02;;;;;;;8.13;4.32;;;15.20;99.90;;;;;;5048496;28;20068;-78
2023/07/27 01:50:30;;;;;;;9.75;5.50;;;15.10;99.90;;;;;;5032167;28;20056;-77
2023/07/27 01:52:56;;;;;;;6.75;4.72;;;15.10;99.90;;;;;;5031778;28;20411;-78
2023/07/27 01:55:23;;;;;;;8.55;4.68;;;15.10;99.90;;;;;;5032276;28;20049;-77
2023/07/27 01:57:50;;;;;;;6.65;4.45;;;15.10;99.90;;;;;;5032812;28;20053;-77
2023/07/27 02:00:16;;;;;;;6.80;4.82;;;15.00;99.90;;;;;;5033066;28;20405;-78
2023/07/27 02:02:43;;;;;;;8.32;4.90;;;15.00;99.90;;;;;;5032592;28;20227;-76
2023/07/27 02:05:09;;;;;;;8.05;4.68;;;15.00;99.90;;;;;;5032612;28;20060;-78
2023/07/27 02:07:36;;;;;;;8.93;5.00;;;15.00;99.90;;;;;;5033076;28;20418;-78
2023/07/27 02:10:02;;;;;;;7.90;4.95;;;15.00;99.90;;;;;;5032574;28;20041;-78
2023/07/27 02:12:34;;;;;;;6.85;4.68;;;15.00;99.90;;;;;;5032284;28;20490;-78
2023/07/27 02:15:27;;;;;;;6.68;4.45;;;15.00;99.90;;;;;;5049967;28;20071;-78
2023/07/27 02:18:00;;;;;;;8.70;4.78;;;15.00;99.90;;;;;;5035140;28;20495;-78
2023/07/27 02:20:31;;;;;;;8.57;4.50;;;15.00;99.90;;;;;;5038189;28;20049;-77
2023/07/27 02:22:58;;;;;;;9.32;4.80;;;15.00;99.90;;;;;;5033863;28;20049;-78
2023/07/27 02:25:24;;;;;;;8.25;4.80;;;15.00;99.90;;;;;;5031452;28;20089;-78
2023/07/27 02:27:49;;;;;;;8.93;5.07;;;15.00;99.90;;;;;;5014219;28;20474;-78
2023/07/27 02:30:15;;;;;;;7.22;4.82;;;15.00;99.90;;;;;;5032018;28;20136;-78
2023/07/27 02:32:41;;;;;;;8.85;4.65;;;15.00;99.90;;;;;;5032782;28;20052;-78
2023/07/27 02:35:07;;;;;;;8.75;4.85;;;15.00;99.90;;;;;;5032688;28;20494;-78
2023/07/27 02:37:33;;;;;;;6.85;4.97;;;15.00;99.90;;;;;;5034831;28;20183;-77
2023/07/27 02:39:58;;;;;;;8.98;4.57;;;15.00;99.90;;;;;;5037101;28;20080;-77
2023/07/27 02:42:24;;;;;;;7.78;4.78;;;15.00;99.90;;;;;;5036785;28;20483;-77
2023/07/27 02:44:50;;;;;;;8.75;5.03;;;15.00;99.90;;;;;;5035812;28;20041;-77
2023/07/27 02:47:15;;;;;;;7.78;4.72;;;15.10;99.90;;;;;;5031495;28;20132;-78
2023/07/27 02:49:41;;;;;;;6.18;4.03;;;15.10;99.90;;;;;;5032468;28;20095;-77
2023/07/27 02:52:07;;;;;;;8.75;4.38;;;15.10;99.90;;;;;;5014535;28;20302;-77
2023/07/27 02:54:33;;;;;;;8.25;5.03;;;15.10;99.90;;;;;;5031192;28;20064;-76
2023/07/27 02:56:59;;;;;;;6.45;4.50;;;15.10;99.90;;;;;;5031945;28;20045;-77
2023/07/27 02:59:24;;;;;;;6.43;4.75;;;15.10;99.90;;;;;;5031305;28;20471;-78
2023/07/27 03:01:51;;;;;;;6.88;4.70;;;15.10;99.90;;;;;;5031973;28;20094;-76
2023/07/27 03:04:16;;;;;;;6.53;4.68;;;15.10;99.90;;;;;;5031674;28;20041;-79
2023/07/27 03:06:43;;;;;;;8.20;4.90;;;15.10;99.90;;;;;;5032236;28;20061;-78
2023/07/27 03:09:09;;;;;;;7.05;4.72;;;15.10;99.90;;;;;;5030589;28;20171;-78
2023/07/27 03:11:37;;;;;;;7.75;4.88;;;15.10;99.90;;;;;;5031495;28;20391;-78
2023/07/27 03:14:03;;;;;;;8.82;4.88;;;15.10;99.90;;;;;;5030831;28;20049;-78
2023/07/27 03:16:30;;;;;;;9.00;5.15;;;15.10;99.90;;;;;;5030859;28;20484;-78
2023/07/27 03:18:56;;;;;;;11.82;5.35;;;15.10;99.90;;;;;;5031690;28;20052;-77
2023/07/27 03:21:22;;;;;;;7.13;4.72;;;15.00;99.90;;;;;;5032078;28;20045;-77
2023/07/27 03:23:48;;;;;;;8.77;5.05;;;15.00;99.90;;;;;;5032026;28;20045;-78
2023/07/27 03:26:15;;;;;;;7.95;4.93;;;15.00;99.90;;;;;;5030714;28;20054;-76
2023/07/27 03:28:41;;;;;;;6.55;4.68;;;15.00;99.90;;;;;;5030715;28;20064;-78
2023/07/27 03:31:17;;;;;;;9.07;5.55;;;15.00;99.90;;;;;;5030623;28;20052;-77
2023/07/27 03:33:43;;;;;;;7.95;5.05;;;15.00;99.90;;;;;;5047414;28;20041;-79
2023/07/27 03:36:09;;;;;;;8.23;4.75;;;15.00;99.90;;;;;;5031741;28;20050;-77
2023/07/27 03:38:35;;;;;;;7.70;4.90;;;15.00;99.90;;;;;;5030857;28;20046;-77
2023/07/27 03:41:01;;;;;;;6.65;4.47;;;15.00;99.90;;;;;;5031080;28;20045;-78
2023/07/27 03:43:27;;;;;;;7.15;4.38;;;15.00;99.90;;;;;;5035882;28;20065;-78
2023/07/27 03:45:53;;;;;;;9.10;4.68;;;15.00;99.90;;;;;;5034353;28;20045;-76
2023/07/27 03:48:19;;;;;;;7.80;4.88;;;15.00;99.90;;;;;;5036282;28;20124;-77
2023/07/27 03:50:45;;;;;;;7.50;4.90;;;15.00;99.90;;;;;;5038857;28;20059;-78
2023/07/27 03:53:11;;;;;;;9.48;5.10;;;15.10;99.90;;;;;;5046006;28;20056;-78
2023/07/27 03:55:37;;;;;;;6.82;4.82;;;15.10;99.90;;;;;;5048680;28;20041;-80
2023/07/27 03:58:03;;;;;;;9.75;5.68;;;15.10;99.90;;;;;;5036143;28;20048;-79
2023/07/27 04:00:29;;;;;;;8.20;5.78;;;15.10;99.90;;;;;;5035647;28;20128;-79
2023/07/27 04:02:54;;;;;;;7.97;5.40;;;15.10;99.90;;;;;;5034265;28;20479;-79
2023/07/27 04:05:20;;;;;;;8.90;5.88;;;15.20;99.90;;;;;;5035103;28;20382;-79
2023/07/27 04:07:49;;;;;;;8.50;5.68;;;15.20;99.90;;;;;;5033902;28;20054;-79
2023/07/27 04:10:15;;;;;;;8.35;6.03;;;15.10;99.90;;;;;;5033428;28;20052;-78
2023/07/27 04:12:41;;;;;;;10.35;5.40;;;15.10;99.90;;;;;;5033712;28;20045;-78
2023/07/27 04:15:07;;;;;;;8.73;6.00;;;15.10;99.90;;;;;;5034684;28;20049;-79
2023/07/27 04:17:33;;;;;;;8.65;6.30;;;15.10;99.90;;;;;;5035101;28;20091;-78
2023/07/27 04:19:58;;;;;;;8.30;5.78;;;15.10;99.90;;;;;;5033510;28;20049;-77
2023/07/27 04:22:24;;;;;;;10.23;6.00;;;15.10;99.90;;;;;;5033642;28;20092;-78
2023/07/27 04:24:50;;;;;;;7.72;5.75;;;15.10;99.90;;;;;;5034486;28;20129;-78
2023/07/27 04:27:16;;;;;;;11.50;6.13;;;15.00;99.90;;;;;;5032785;28;20058;-78
2023/07/27 04:29:41;;;;;;;8.25;5.13;;;15.10;99.90;;;;;;5033066;28;20057;-79
2023/07/27 04:32:08;;;;;;;13.75;6.45;;;15.00;99.90;;;;;;5032770;28;20171;-78
2023/07/27 04:34:34;;;;;;;14.55;6.63;;;15.00;99.90;;;;;;5033280;28;20042;-78
2023/07/27 04:37:00;;;;;;;10.07;5.47;;;14.90;99.90;;;;;;5033479;28;20045;-76
2023/07/27 04:39:26;;;;;;;10.43;7.15;;;14.90;99.90;;;;;;5033040;28;20126;-78
2023/07/27 04:41:51;;;;;;;10.77;6.57;;;14.90;99.90;;;;;;5034461;28;20151;-79
2023/07/27 04:44:17;;;;;;;8.98;7.13;;;14.90;99.90;;;;;;5033803;28;20081;-78
2023/07/27 04:46:43;;;;;;;11.73;6.95;;;14.90;99.90;;;;;;5033092;28;20050;-80
2023/07/27 04:49:08;;;;;;;12.77;7.00;;;14.90;99.90;;;;;;5034024;28;20045;-76
2023/07/27 04:51:34;;;;;;;9.95;6.97;;;14.90;99.90;;;;;;5034188;28;20053;-77
2023/07/27 04:54:01;;;;;;;10.70;7.63;;;14.90;99.90;;;;;;5032614;28;20119;-76
2023/07/27 04:56:27;;;;;;;10.60;7.57;;;14.90;99.90;;;;;;5049213;28;20045;-76
2023/07/27 04:58:53;;;;;;;10.60;7.65;;;14.90;99.90;;;;;;5034128;28;20048;-76
2023/07/27 05:01:19;;;;;;;10.73;8.00;;;14.90;99.90;;;;;;5033737;28;20057;-77
2023/07/27 05:03:44;;;;;;;13.07;7.75;;;14.80;99.90;;;;;;5033986;28;20132;-76
2023/07/27 05:06:10;;;;;;;12.75;8.10;;;14.80;99.90;;;;;;5033655;28;20053;-77
2023/07/27 05:08:36;;;;;;;10.82;8.02;;;14.80;99.90;;;;;;5034136;28;20049;-78
2023/07/27 05:11:03;;;;;;;11.73;8.30;;;14.80;99.90;;;;;;5032781;28;20411;-78
2023/07/27 05:13:28;;;;;;;14.88;8.43;;;14.90;99.90;;;;;;5033727;28;20056;-79
2023/07/27 05:15:54;;;;;;;9.88;6.95;;;14.90;99.90;;;;;;5016259;28;20041;-78
2023/07/27 05:18:20;;;;;;;13.60;7.30;;;14.80;99.90;;;;;;5016143;28;20041;-78
2023/07/27 05:20:46;;;;;;;11.38;7.22;;;14.80;99.90;;;;;;5032732;28;20106;-79
2023/07/27 05:23:11;;;;;;;12.93;7.70;;;14.80;99.90;;;;;;5033426;28;20042;-78
2023/07/27 05:25:37;;;;;;;12.07;7.57;;;14.70;99.90;;;;;;5032113;28;20128;-77
2023/07/27 05:28:03;;;;;;;11.95;7.50;;;14.70;99.90;;;;;;5033459;28;20085;-77
2023/07/27 05:30:29;;;;;;;12.45;7.28;;;14.70;99.90;;;;;;5032093;28;20052;-77
2023/07/27 05:32:55;;;;;;;12.40;7.63;;;14.70;99.90;;;;;;5016083;28;20276;-79
2023/07/27 05:35:20;;;;;;;10.95;7.22;;;14.70;99.90;;;;;;5033005;28;20042;-78
2023/07/27 05:37:46;;;;;;;12.15;7.65;;;14.70;99.90;;;;;;5032125;28;20041;-78
2023/07/27 05:40:16;;;;;;;12.00;7.20;;;14.70;99.90;;;;;;5032094;28;20045;-78
2023/07/27 05:42:42;;;;;;;10.35;7.63;;;14.70;99.90;;;;;;5033199;28;20052;-84
2023/07/27 05:45:09;;;;;;;11.45;7.57;;;14.70;99.90;;;;;;5033115;28;20046;-78
2023/07/27 05:47:35;;;;;;;10.20;6.30;;;14.70;99.90;;;;;;5031831;28;20081;-79
2023/07/27 05:50:02;;;;;;;9.88;6.05;;;14.70;99.90;;;;;;5033160;28;20087;-79
2023/07/27 05:52:27;;;;;;;10.00;6.00;;;14.70;99.90;;;;;;5032724;28;20045;-80
2023/07/27 05:54:53;;;;;;;10.07;6.72;;;14.70;99.90;;;;;;5015433;28;20067;-77
2023/07/27 05:57:19;;;;;;;8.98;6.03;;;14.60;99.90;;;;;;5032133;28;20047;-78
2023/07/27 05:59:44;;;;;;;8.90;6.57;;;14.60;99.90;;;;;;5033124;28;20049;-78
2023/07/27 06:02:10;;;;;;;9.38;6.53;;;14.60;99.90;;;;;;5031439;28;20094;-77
2023/07/27 06:04:36;;;;;;;9.50;6.30;;;14.60;99.90;;;;;;5030217;28;20144;-77
2023/07/27 06:07:02;;;;;;;9.55;6.22;;;14.60;99.90;;;;;;5032713;28;20072;-76
2023/07/27 06:09:27;;;;;;;9.10;6.60;;;14.60;99.90;;;;;;5035439;28;20099;-77
2023/07/27 06:11:53;;;;;;;9.25;6.40;;;14.70;99.90;;;;;;5039313;28;20056;-77
2023/07/27 06:14:19;;;;;;;9.52;5.85;;;14.60;99.90;;;;;;5038051;28;20534;-77
2023/07/27 06:16:45;;;;;;;9.77;6.65;;;14.60;99.90;;;;;;5034085;28;20060;-77
2023/07/27 06:19:10;;;;;;;11.23;6.95;;;14.60;99.90;;;;;;5031753;28;20045;-76
2023/07/27 06:21:36;;;;;;;8.50;6.75;;;14.60;99.90;;;;;;5031345;28;20107;-77
2023/07/27 06:24:02;;;;;;;9.90;7.22;;;14.60;99.90;;;;;;5031640;28;20132;-77
2023/07/27 06:26:28;;;;;;;10.52;7.20;;;14.60;99.90;;;;;;5032810;28;20148;-77
2023/07/27 06:28:53;;;;;;;10.48;6.95;;;14.70;99.90;;;;;;5032954;28;20065;-78
2023/07/27 06:31:19;;;;;;;10.25;6.22;;;14.80;99.90;;;;;;5030827;28;20045;-74
2023/07/27 06:33:45;;;;;;;8.75;6.07;;;14.80;99.90;;;;;;5031964;28;20061;-76
2023/07/27 06:36:17;;;;;;;9.82;6.22;;;15.00;99.90;;;;;;5032187;28;20051;-75
2023/07/27 06:38:43;;;;;;;10.82;6.70;;;15.20;99.90;;;;;;5032260;28;20053;-77
2023/07/27 06:41:09;;;;;;;9.13;6.00;;;15.40;99.90;;;;;;5032334;28;20360;-75
2023/07/27 06:43:35;;;;;;;9.20;5.45;;;15.70;99.90;;;;;;5014186;28;20056;-75
2023/07/27 06:46:01;;;;;;;8.02;5.57;;;15.80;99.90;;;;;;5031872;28;20045;-75
2023/07/27 06:48:26;;;;;;;7.97;4.90;;;15.90;99.90;;;;;;5030578;28;20072;-75
2023/07/27 06:50:52;;;;;;;7.40;5.60;;;15.90;99.90;;;;;;5032446;28;20045;-76
2023/07/27 06:53:18;;;;;;;7.10;4.95;;;16.00;99.90;;;;;;5030693;28;20060;-75
2023/07/27 06:55:44;;;;;;;7.90;5.25;;;16.00;99.90;;;;;;5031905;28;20046;-77
2023/07/27 06:58:09;;;;;;;8.77;5.10;;;16.10;99.90;;;;;;5014439;28;20493;-75
2023/07/27 07:00:36;;;;;;;6.70;4.72;;;16.10;99.90;;;;;;5030384;28;20081;-73
2023/07/27 07:03:02;;;;;;;6.63;4.88;;;16.10;99.90;;;;;;5030796;28;20045;-74
2023/07/27 07:05:28;;;;;;;6.80;5.22;;;16.10;99.90;;;;;;5030193;28;20068;-74
2023/07/27 07:07:54;;;;;;;7.60;5.25;;;16.10;99.90;;;;;;5030488;28;20080;-73
2023/07/27 07:10:20;;;;;;;7.65;4.68;;;16.10;99.90;;;;;;5031858;28;20041;-74
2023/07/27 07:12:45;;;;;;;7.90;5.00;;;16.10;99.90;;;;;;5031255;28;20053;-74
2023/07/27 07:15:11;;;;;;;6.47;4.45;;;16.10;99.90;;;;;;5032151;28;20056;-74
2023/07/27 07:17:38;;;;;;;6.28;4.57;;;16.10;99.90;;;;;;5035555;28;20057;-74
2023/07/27 07:20:09;;;;;;;5.75;4.00;;;16.00;99.90;;;;;;5036026;28;20049;-73
2023/07/27 07:22:37;;;;;;;7.28;4.78;;;16.00;99.90;;;;;;5035153;28;20506;-73
2023/07/27 07:25:04;;;;;;;5.82;3.83;;;16.00;99.90;;;;;;5035511;28;20041;-73
2023/07/27 07:27:30;;;;;;;7.05;3.70;;;15.90;99.90;;;;;;5034048;28;20075;-73
2023/07/27 07:29:55;;;;;;;6.95;4.65;;;15.90;99.90;;;;;;5017958;28;20058;-72
2023/07/27 07:32:21;;;;;;;6.10;4.07;;;15.90;99.90;;;;;;5017625;28;20052;-72
2023/07/27 07:34:47;;;;;;;6.35;4.15;;;16.00;99.90;;;;;;5035301;28;20037;-74
2023/07/27 07:37:12;;;;;;;6.60;3.45;;;16.00;99.90;;;;;;5035050;28;20048;-71
2023/07/27 07:39:38;;;;;;;6.18;3.92;;;16.00;99.90;;;;;;5034359;28;20130;-71
2023/07/27 07:42:04;;;;;;;6.43;4.38;;;16.00;99.90;;;;;;5035649;28;20071;-72
2023/07/27 07:44:30;;;;;;;6.10;4.13;;;16.10;99.90;;;;;;5035009;28;20042;-72
2023/07/27 07:46:55;;;;;;;9.85;4.88;;;16.10;99.90;;;;;;5017845;28;20061;-72
2023/07/27 07:49:25;;;;;;;7.32;4.30;;;16.10;99.90;;;;;;5035349;28;20399;-73
2023/07/27 07:51:51;;;;;;;5.80;3.92;;;16.10;99.90;;;;;;5033769;28;20089;-72
2023/07/27 07:54:17;;;;;;;6.18;4.30;;;16.10;99.90;;;;;;5035054;28;20474;-73
2023/07/27 07:56:44;;;;;;;7.28;3.95;;;16.00;99.90;;;;;;5034288;28;20128;-72
2023/07/27 07:59:09;;;;;;;5.43;4.15;;;16.00;99.90;;;;;;5033773;28;20483;-73
2023/07/27 08:01:35;;;;;;;7.15;4.10;;;16.00;99.90;;;;;;5034742;28;20060;-73
2023/07/27 08:04:01;;;;;;;4.22;3.55;;;16.00;99.90;;;;;;5034050;28;20052;-72
2023/07/27 08:06:27;;;;;;;5.85;3.83;;;16.10;99.90;;;;;;5033989;28;20045;-72
2023/07/27 08:08:52;;;;;;;4.95;3.45;;;16.10;99.90;;;;;;5034583;28;20114;-73
2023/07/27 08:11:18;;;;;;;5.35;3.60;;;16.10;99.90;;;;;;5035123;28;20454;-73
2023/07/27 08:13:44;;;;;;;6.03;4.15;;;16.20;99.90;;;;;;5034421;28;20049;-73
2023/07/27 08:16:10;;;;;;;5.72;3.65;;;16.20;99.90;;;;;;5034756;28;20057;-73
2023/07/27 08:18:36;;;;;;;4.32;3.15;;;16.20;99.90;;;;;;5033087;28;20467;-73
2023/07/27 08:21:02;;;;;;;4.80;3.42;;;16.20;99.90;;;;;;5033301;28;20049;-72
2023/07/27 08:23:28;;;;;;;5.13;3.53;;;16.20;99.90;;;;;;5034994;28;20406;-73
2023/07/27 08:25:58;;;;;;;6.40;3.25;;;16.30;99.90;;;;;;5034085;28;20584;-73
2023/07/27 08:28:24;;;;;;;4.22;3.15;;;16.30;99.90;;;;;;5033281;28;20049;-72
2023/07/27 08:30:50;;;;;;;4.28;3.13;;;16.40;99.90;;;;;;5034931;28;20046;-73
2023/07/27 08:33:16;;;;;;;5.05;3.08;;;16.40;99.90;;;;;;5018314;28;20088;-72
2023/07/27 08:35:42;;;;;;;3.88;2.80;;;16.40;99.90;;;;;;5033094;28;20567;-74
2023/07/27 08:38:08;;;;;;;5.07;2.85;;;16.50;99.90;;;;;;5034585;28;20120;-72
2023/07/27 08:40:33;;;;;;;3.60;2.72;;;16.60;99.90;;;;;;5032894;28;20053;-73
2023/07/27 08:43:01;;;;;;;4.60;2.50;;;16.50;99.90;;;;;;5033317;28;20111;-74
2023/07/27 08:45:29;;;;;;;4.35;2.50;;;16.50;99.90;;;;;;5034181;28;20103;-74
2023/07/27 08:47:55;;;;;;;5.40;2.20;;;16.60;99.90;;;;;;5032342;28;20055;-74
2023/07/27 08:50:22;;;;;;;4.80;2.50;;;16.60;99.90;;;;;;5033966;28;20124;-74
2023/07/27 08:52:48;;;;;;;6.95;2.83;;;16.60;99.90;;;;;;5033739;28;20128;-74
2023/07/27 08:55:15;;;;;;;2.88;2.00;;;16.60;99.90;;;;;;5034106;28;20129;-74
2023/07/27 08:57:41;;;;;;;3.35;2.20;;;16.60;99.90;;;;;;5016189;28;20053;-74
2023/07/27 09:00:11;;;;;;;3.08;2.20;;;16.60;99.90;;;;;;5033963;28;20398;-74
2023/07/27 09:02:38;;;;;;;5.60;2.88;;;16.60;99.90;;;;;;5034211;28;20096;-74
2023/07/27 09:05:05;;;;;;;4.80;2.58;;;16.60;99.90;;;;;;5033277;28;20494;-74
2023/07/27 09:07:31;;;;;;;3.97;2.30;;;16.70;99.90;;;;;;5032748;28;20057;-74
2023/07/27 09:09:57;;;;;;;4.43;2.65;;;16.70;99.90;;;;;;5033451;28;20084;-74
2023/07/27 09:12:24;;;;;;;3.65;2.30;;;16.80;99.90;;;;;;5032820;28;20400;-72
2023/07/27 09:14:50;;;;;;;3.40;2.55;;;16.80;99.90;;;;;;5033334;28;20091;-71
2023/07/27 09:17:16;;;;;;;4.72;2.47;;;16.80;99.90;;;;;;5033494;28;20550;-71
2023/07/27 09:19:43;;;;;;;2.92;1.85;;;16.90;99.90;;;;;;5031161;28;20056;-73
2023/07/27 09:22:11;;;;;;;4.00;2.50;;;17.00;99.90;;;;;;5032524;28;20096;-73
2023/07/27 09:24:36;;;;;;;4.43;2.47;;;17.00;99.90;;;;;;5033285;28;20041;-72
2023/07/27 09:27:09;;;;;;;2.72;2.03;;;17.10;99.90;;;;;;5032916;28;20362;-72
2023/07/27 09:29:34;;;;;;;3.20;1.90;;;17.20;99.90;;;;;;5032880;28;20507;-71
2023/07/27 09:32:00;;;;;;;3.00;2.15;;;17.20;99.90;;;;;;5032571;28;20049;-72
2023/07/27 09:34:28;;;;;;;2.75;2.08;;;17.20;99.90;;;;;;5032149;28;20462;-72
2023/07/27 09:36:58;;;;;;;3.90;2.10;;;17.20;99.90;;;;;;5032886;28;20050;-73
2023/07/27 09:39:26;;;;;;;3.30;1.95;;;17.20;99.90;;;;;;5032929;28;20045;-75
2023/07/27 09:41:53;;;;;;;2.92;2.10;;;17.20;99.90;;;;;;5031561;28;20049;-75
2023/07/27 09:44:21;;;;;;;3.20;2.10;;;17.20;99.90;;;;;;5033096;28;20057;-74
2023/07/27 09:46:47;;;;;;;2.83;1.80;;;17.20;99.90;;;;;;5032757;28;20056;-75
2023/07/27 09:49:14;;;;;;;2.60;1.80;;;17.30;99.90;;;;;;5033330;28;20041;-72
2023/07/27 09:51:41;;;;;;;2.70;1.73;;;17.30;99.90;;;;;;5032066;28;20104;-72
2023/07/27 09:54:07;;;;;;;2.50;1.60;;;17.30;99.90;;;;;;5032590;28;20065;-72
2023/07/27 09:56:33;;;;;;;2.80;1.90;;;17.30;99.90;;;;;;5033214;28;20113;-73
2023/07/27 09:59:00;;;;;;;4.05;1.98;;;17.40;99.90;;;;;;5031488;28;20149;-73
2023/07/27 10:01:27;;;;;;;2.90;1.70;;;17.20;99.90;;;;;;5033188;28;20053;-73
2023/07/27 10:03:57;;;;;;;3.05;2.03;;;17.20;99.90;;;;;;5031217;28;20196;-73
2023/07/27 10:06:28;;;;;;;4.03;1.83;;;17.20;99.90;;;;;;5031784;28;20160;-72
2023/07/27 10:08:55;;;;;;;2.67;1.90;;;17.10;99.90;;;;;;5032416;28;20114;-72
2023/07/27 10:11:55;;;;;;;4.28;1.90;;;17.10;99.90;;;;;;5032474;28;20495;-72
2023/07/27 10:14:24;;;;;;;2.35;1.67;;;17.10;99.90;;;;;;5012293;28;20175;-72
2023/07/27 10:17:08;;;;;;;2.20;1.50;;;17.20;99.90;;;;;;5032121;28;20071;-74
2023/07/27 10:19:41;;;;;;;3.45;1.98;;;17.30;99.90;;;;;;5031621;28;20060;-72
2023/07/27 10:22:17;;;;;;;4.38;1.80;;;17.30;99.90;;;;;;5014750;28;20049;-74
2023/07/27 10:24:54;;;;;;;2.55;1.90;;;17.30;99.90;;;;;;5031357;28;20088;-73
2023/07/27 10:27:22;;;;;;;2.90;1.88;;;17.30;99.90;;;;;;5032764;28;20049;-73
2023/07/27 10:29:52;;;;;;;2.65;2.03;;;17.40;99.90;;;;;;5032381;28;20073;-71
2023/07/27 10:32:18;;;;;;;2.75;1.77;;;17.40;99.90;;;;;;5047640;28;20495;-73
2023/07/27 10:34:50;;;;;;;2.22;2.00;;;17.40;99.90;;;;;;5032464;28;20163;-73
2023/07/27 10:37:15;;;;;;;4.07;2.40;;;17.30;99.90;;;;;;5047384;28;20127;-73
2023/07/27 10:39:46;;;;;;;3.28;1.90;;;17.40;99.90;;;;;;5032110;28;20525;-72
2023/07/27 10:42:19;;;;;;;3.95;2.10;;;17.30;99.90;;;;;;5031807;28;20049;-71
2023/07/27 10:44:47;;;;;;;2.03;1.70;;;17.40;99.90;;;;;;5032108;28;20048;-72
2023/07/27 10:47:15;;;;;;;2.00;1.60;;;17.40;99.90;;;;;;5035210;28;20045;-72
2023/07/27 10:49:47;;;;;;;2.40;1.90;;;17.50;99.90;;;;;;5032571;28;20099;-72
2023/07/27 10:52:39;;;;;;;3.42;2.10;;;17.60;99.90;;;;;;5030535;28;20049;-74
2023/07/27 10:55:06;;;;;;;2.20;1.80;;;17.60;99.90;;;;;;5031708;28;20041;-74
2023/07/27 10:57:34;;;;;;;1.80;1.63;;;17.60;99.90;;;;;;5030601;28;20495;-73
2023/07/27 11:00:00;;;;;;;2.42;1.80;;;17.50;99.90;;;;;;5031324;28;20041;-73
2023/07/27 11:02:32;;;;;;;3.33;1.90;;;17.50;99.90;;;;;;5031826;28;20364;-74
2023/07/27 11:05:05;;;;;;;3.33;1.90;;;17.50;99.90;;;;;;5030168;28;20483;-76
2023/07/27 11:07:40;;;;;;;3.43;2.23;;;17.40;99.90;;;;;;5030602;28;20487;-73
2023/07/27 11:10:08;;;;;;;3.28;2.20;;;17.40;99.90;;;;;;5031072;28;20071;-73
2023/07/27 11:12:53;;;;;;;3.13;2.25;;;17.40;99.90;;;;;;5031756;28;20398;-74
2023/07/27 11:15:22;;;;;;;;;;;17.40;99.90;;;;;;5031573;28;20111;-74
2023/07/27 11:17:50;;;;;;;3.05;2.00;;;17.30;99.90;;;;;;5031840;28;19921;-74
2023/07/27 11:20:18;;;;;;;2.10;1.73;;;17.30;99.90;;;;;;5030030;28;20144;-73
2023/07/27 11:22:46;;;;;;;2.88;1.95;;;17.30;99.90;;;;;;5030113;28;20046;-73
2023/07/27 11:25:12;;;;;;;4.00;2.10;;;17.30;99.90;;;;;;5031178;28;20076;-73
2023/07/27 11:27:38;;;;;;;5.55;2.20;;;17.30;99.90;;;;;;5030379;28;20053;-73
2023/07/27 11:30:07;;;;;;;3.20;2.05;;;17.30;99.90;;;;;;5029891;28;20156;-73
2023/07/27 11:32:33;;;;;;;5.05;2.33;;;17.30;99.90;;;;;;5031959;28;20398;-73
2023/07/27 11:34:59;;;;;;;4.35;2.60;;;17.20;99.90;;;;;;5031357;28;20042;-73
2023/07/27 11:37:30;;;;;;;4.03;2.70;;;17.20;99.90;;;;;;5029898;28;20375;-72
2023/07/27 11:39:56;;;;;;;3.47;2.60;;;17.30;99.90;;;;;;5031585;28;20049;-73
2023/07/27 11:42:34;;;;;;;5.43;2.50;;;17.30;99.90;;;;;;5029805;28;20057;-73
2023/07/27 11:45:00;;;;;;;4.60;2.38;;;17.40;99.90;;;;;;5031217;28;20044;-73
2023/07/27 11:47:26;;;;;;;4.30;2.80;;;17.30;99.90;;;;;;5030805;28;20041;-73
2023/07/27 11:49:55;;;;;;;5.00;2.78;;;17.30;99.90;;;;;;5031237;28;20041;-72
2023/07/27 11:52:21;;;;;;;4.20;2.90;;;17.30;99.90;;;;;;5029667;28;20128;-73
2023/07/27 11:54:52;;;;;;;4.07;3.08;;;17.30;99.90;;;;;;5030996;28;20096;-71
2023/07/27 11:57:18;;;;;;;8.15;3.10;;;17.40;99.90;;;;;;5029748;28;20049;-71
2023/07/27 12:00:14;;;;;;;4.80;3.65;;;17.40;99.90;;;;;;5030079;28;20045;-71
2023/07/27 12:02:44;;;;;;;4.50;3.55;;;17.40;99.90;;;;;;5032408;28;20045;-72
2023/07/27 12:05:19;;;;;;;6.03;3.65;;;17.40;99.90;;;;;;5032899;28;20111;-73
2023/07/27 12:07:45;;;;;;;3.13;2.83;;;17.40;99.90;;;;;;5034732;28;20388;-72
2023/07/27 12:10:22;;;;;;;5.18;3.40;;;17.40;99.90;;;;;;5033321;28;20053;-71
2023/07/27 12:13:06;;;;;;;12.52;4.38;;;17.40;99.90;;;;;;5033679;28;20096;-73
2023/07/27 12:15:34;;;;;;;5.75;3.72;;;17.40;99.90;;;;;;5034688;28;20053;-75
2023/07/27 12:18:02;;;;;;;9.23;4.57;;;17.40;99.90;;;;;;5017305;28;20088;-73
2023/07/27 12:20:29;;;;;;;5.55;4.60;;;17.40;99.90;;;;;;5032927;28;20046;-74
2023/07/27 12:22:56;;;;;;;5.50;4.13;;;17.30;99.90;;;;;;5034090;28;20045;-74
2023/07/27 12:25:23;;;;;;;4.00;3.50;;;17.50;99.90;;;;;;5032850;28;20041;-73
2023/07/27 12:27:49;;;;;;;4.50;3.92;;;17.60;99.90;;;;;;5034752;28;20060;-83
2023/07/27 12:30:15;;;;;;;4.97;3.70;;;17.60;99.90;;;;;;5036453;28;20057;-86
2023/07/27 12:32:41;;;;;;;4.38;3.60;;;17.60;99.90;;;;;;5038719;28;20051;-87
2023/07/27 12:35:07;;;;;;;4.43;4.00;;;17.70;99.90;;;;;;5040151;28;20479;-87
2023/07/27 12:37:33;;;;;;;4.50;3.55;;;17.80;99.90;;;;;;5021638;28;20056;-86
2023/07/27 12:39:59;;;;;;;4.68;3.13;;;17.80;99.90;;;;;;5019705;28;20526;-85
2023/07/27 12:42:24;;;;;;;4.78;3.42;;;17.90;99.90;;;;;;5037726;28;20049;-86
2023/07/27 12:44:50;;;;;;;4.38;2.75;;;17.90;99.90;;;;;;5019169;28;20383;-87
2023/07/27 12:47:16;;;;;;;3.80;3.05;;;17.90;99.90;;;;;;5033855;28;20112;-83